sensor_id;sensor_type;location;lat;lon;timestamp;P1;durP1;ratioP1;P2;durP2;ratioP2
23451;SDS011;11898;51.130;6.780;2022-07-15T00:00:09;3.40;;;2.17;;
23451;SDS011;11898;51.130;6.780;2022-07-15T00:02:40;3.45;;;2.67;;
23451;SDS011;11898;51.130;6.780;2022-07-15T00:05:09;2.77;;;2.55;;
23451;SDS011;11898;51.130;6.780;2022-07-15T00:07:38;2.30;;;2.20;;
23451;SDS011;11898;51.130;6.780;2022-07-15T00:10:06;2.52;;;2.17;;
23451;SDS011;11898;51.130;6.780;2022-07-15T00:12:42;2.20;;;2.00;;
23451;SDS011;11898;51.130;6.780;2022-07-15T00:15:16;2.37;;;1.80;;
23451;SDS011;11898;51.130;6.780;2022-07-15T00:17:47;3.50;;;2.27;;
23451;SDS011;11898;51.130;6.780;2022-07-15T00:20:16;4.33;;;2.50;;
23451;SDS011;11898;51.130;6.780;2022-07-15T00:22:46;2.67;;;2.47;;
23451;SDS011;11898;51.130;6.780;2022-07-15T00:25:16;3.30;;;3.02;;
23451;SDS011;11898;51.130;6.780;2022-07-15T00:30:37;2.47;;;2.30;;
23451;SDS011;11898;51.130;6.780;2022-07-15T00:33:04;3.20;;;2.65;;
23451;SDS011;11898;51.130;6.780;2022-07-15T00:35:33;2.80;;;2.60;;
23451;SDS011;11898;51.130;6.780;2022-07-15T00:38:03;3.27;;;2.58;;
23451;SDS011;11898;51.130;6.780;2022-07-15T00:40:43;4.47;;;2.65;;
23451;SDS011;11898;51.130;6.780;2022-07-15T00:43:13;4.37;;;2.47;;
23451;SDS011;11898;51.130;6.780;2022-07-15T00:45:44;3.95;;;3.00;;
23451;SDS011;11898;51.130;6.780;2022-07-15T00:48:14;2.50;;;2.30;;
23451;SDS011;11898;51.130;6.780;2022-07-15T00:50:44;2.65;;;2.47;;
23451;SDS011;11898;51.130;6.780;2022-07-15T00:53:16;2.62;;;2.35;;
23451;SDS011;11898;51.130;6.780;2022-07-15T00:55:45;2.40;;;2.20;;
23451;SDS011;11898;51.130;6.780;2022-07-15T00:58:20;2.10;;;2.00;;
23451;SDS011;11898;51.130;6.780;2022-07-15T01:00:47;3.12;;;2.17;;
23451;SDS011;11898;51.130;6.780;2022-07-15T01:03:17;2.20;;;2.00;;
23451;SDS011;11898;51.130;6.780;2022-07-15T01:05:47;3.60;;;2.35;;
23451;SDS011;11898;51.130;6.780;2022-07-15T01:08:16;3.70;;;2.10;;
23451;SDS011;11898;51.130;6.780;2022-07-15T01:10:46;2.15;;;2.05;;
23451;SDS011;11898;51.130;6.780;2022-07-15T01:13:16;2.52;;;2.33;;
23451;SDS011;11898;51.130;6.780;2022-07-15T01:15:46;3.42;;;2.27;;
23451;SDS011;11898;51.130;6.780;2022-07-15T01:18:16;2.40;;;2.20;;
23451;SDS011;11898;51.130;6.780;2022-07-15T01:20:45;3.87;;;2.52;;
23451;SDS011;11898;51.130;6.780;2022-07-15T01:23:15;2.83;;;2.60;;
23451;SDS011;11898;51.130;6.780;2022-07-15T01:25:43;2.67;;;2.15;;
23451;SDS011;11898;51.130;6.780;2022-07-15T01:28:12;4.20;;;2.67;;
23451;SDS011;11898;51.130;6.780;2022-07-15T01:30:41;3.05;;;2.22;;
23451;SDS011;11898;51.130;6.780;2022-07-15T01:33:09;4.45;;;2.60;;
23451;SDS011;11898;51.130;6.780;2022-07-15T01:35:38;2.95;;;2.27;;
23451;SDS011;11898;51.130;6.780;2022-07-15T01:38:08;2.37;;;2.27;;
23451;SDS011;11898;51.130;6.780;2022-07-15T01:40:37;2.77;;;2.20;;
23451;SDS011;11898;51.130;6.780;2022-07-15T01:43:06;2.58;;;2.37;;
23451;SDS011;11898;51.130;6.780;2022-07-15T01:45:34;3.17;;;2.45;;
23451;SDS011;11898;51.130;6.780;2022-07-15T01:48:03;5.55;;;2.20;;
23451;SDS011;11898;51.130;6.780;2022-07-15T01:50:32;2.92;;;2.30;;
23451;SDS011;11898;51.130;6.780;2022-07-15T01:53:01;2.60;;;2.37;;
23451;SDS011;11898;51.130;6.780;2022-07-15T01:55:29;2.77;;;2.27;;
23451;SDS011;11898;51.130;6.780;2022-07-15T01:57:58;2.25;;;2.05;;
23451;SDS011;11898;51.130;6.780;2022-07-15T02:00:26;2.40;;;2.15;;
23451;SDS011;11898;51.130;6.780;2022-07-15T02:02:55;2.70;;;2.50;;
23451;SDS011;11898;51.130;6.780;2022-07-15T02:05:24;2.10;;;1.92;;
23451;SDS011;11898;51.130;6.780;2022-07-15T02:07:52;4.08;;;2.30;;
23451;SDS011;11898;51.130;6.780;2022-07-15T02:10:21;2.40;;;2.20;;
23451;SDS011;11898;51.130;6.780;2022-07-15T02:12:50;2.90;;;2.27;;
23451;SDS011;11898;51.130;6.780;2022-07-15T02:15:18;2.37;;;2.10;;
23451;SDS011;11898;51.130;6.780;2022-07-15T02:17:47;2.80;;;2.27;;
23451;SDS011;11898;51.130;6.780;2022-07-15T02:20:16;2.90;;;1.98;;
23451;SDS011;11898;51.130;6.780;2022-07-15T02:22:44;2.25;;;2.05;;
23451;SDS011;11898;51.130;6.780;2022-07-15T02:25:14;3.58;;;2.20;;
23451;SDS011;11898;51.130;6.780;2022-07-15T02:27:43;3.33;;;2.10;;
23451;SDS011;11898;51.130;6.780;2022-07-15T02:30:11;3.55;;;2.30;;
23451;SDS011;11898;51.130;6.780;2022-07-15T02:32:40;2.83;;;2.50;;
23451;SDS011;11898;51.130;6.780;2022-07-15T02:35:08;2.25;;;2.05;;
23451;SDS011;11898;51.130;6.780;2022-07-15T02:37:38;5.22;;;2.37;;
23451;SDS011;11898;51.130;6.780;2022-07-15T02:40:06;5.30;;;2.25;;
23451;SDS011;11898;51.130;6.780;2022-07-15T02:42:35;5.62;;;1.90;;
23451;SDS011;11898;51.130;6.780;2022-07-15T02:45:04;2.98;;;1.90;;
23451;SDS011;11898;51.130;6.780;2022-07-15T02:47:34;2.00;;;1.90;;
23451;SDS011;11898;51.130;6.780;2022-07-15T02:50:02;2.42;;;2.25;;
23451;SDS011;11898;51.130;6.780;2022-07-15T02:52:32;2.17;;;2.08;;
23451;SDS011;11898;51.130;6.780;2022-07-15T02:55:01;2.52;;;2.30;;
23451;SDS011;11898;51.130;6.780;2022-07-15T02:57:30;2.52;;;2.37;;
23451;SDS011;11898;51.130;6.780;2022-07-15T02:59:59;2.95;;;1.90;;
23451;SDS011;11898;51.130;6.780;2022-07-15T03:02:27;2.25;;;2.05;;
23451;SDS011;11898;51.130;6.780;2022-07-15T03:04:57;2.60;;;1.98;;
23451;SDS011;11898;51.130;6.780;2022-07-15T03:07:26;3.60;;;1.98;;
23451;SDS011;11898;51.130;6.780;2022-07-15T03:09:57;2.33;;;2.00;;
23451;SDS011;11898;51.130;6.780;2022-07-15T03:12:26;3.52;;;2.37;;
23451;SDS011;11898;51.130;6.780;2022-07-15T03:14:56;2.27;;;2.10;;
23451;SDS011;11898;51.130;6.780;2022-07-15T03:17:25;3.25;;;2.30;;
23451;SDS011;11898;51.130;6.780;2022-07-15T03:19:53;1.98;;;1.87;;
23451;SDS011;11898;51.130;6.780;2022-07-15T03:22:22;2.55;;;2.10;;
23451;SDS011;11898;51.130;6.780;2022-07-15T03:24:52;3.37;;;2.05;;
23451;SDS011;11898;51.130;6.780;2022-07-15T03:27:20;3.05;;;2.08;;
23451;SDS011;11898;51.130;6.780;2022-07-15T03:29:50;4.40;;;2.45;;
23451;SDS011;11898;51.130;6.780;2022-07-15T03:32:18;5.78;;;2.50;;
23451;SDS011;11898;51.130;6.780;2022-07-15T03:34:47;4.65;;;2.30;;
23451;SDS011;11898;51.130;6.780;2022-07-15T03:37:16;3.10;;;2.22;;
23451;SDS011;11898;51.130;6.780;2022-07-15T03:39:44;2.33;;;2.12;;
23451;SDS011;11898;51.130;6.780;2022-07-15T03:42:13;2.52;;;2.33;;
23451;SDS011;11898;51.130;6.780;2022-07-15T03:44:42;3.17;;;2.45;;
23451;SDS011;11898;51.130;6.780;2022-07-15T03:47:10;3.27;;;1.92;;
23451;SDS011;11898;51.130;6.780;2022-07-15T03:49:39;2.90;;;2.40;;
23451;SDS011;11898;51.130;6.780;2022-07-15T03:52:08;2.60;;;2.40;;
23451;SDS011;11898;51.130;6.780;2022-07-15T03:54:37;3.75;;;1.90;;
23451;SDS011;11898;51.130;6.780;2022-07-15T03:57:05;2.80;;;2.52;;
23451;SDS011;11898;51.130;6.780;2022-07-15T03:59:34;3.08;;;2.33;;
23451;SDS011;11898;51.130;6.780;2022-07-15T04:02:02;2.60;;;2.17;;
23451;SDS011;11898;51.130;6.780;2022-07-15T04:04:31;2.20;;;2.00;;
23451;SDS011;11898;51.130;6.780;2022-07-15T04:07:00;4.22;;;2.55;;
23451;SDS011;11898;51.130;6.780;2022-07-15T04:09:28;2.22;;;2.00;;
23451;SDS011;11898;51.130;6.780;2022-07-15T04:11:59;3.92;;;2.22;;
23451;SDS011;11898;51.130;6.780;2022-07-15T04:14:28;6.25;;;2.40;;
23451;SDS011;11898;51.130;6.780;2022-07-15T04:16:56;2.80;;;2.40;;
23451;SDS011;11898;51.130;6.780;2022-07-15T04:19:25;4.17;;;2.37;;
23451;SDS011;11898;51.130;6.780;2022-07-15T04:21:54;5.67;;;2.85;;
23451;SDS011;11898;51.130;6.780;2022-07-15T04:24:22;2.40;;;2.20;;
23451;SDS011;11898;51.130;6.780;2022-07-15T04:26:51;5.10;;;2.45;;
23451;SDS011;11898;51.130;6.780;2022-07-15T04:29:20;2.40;;;2.20;;
23451;SDS011;11898;51.130;6.780;2022-07-15T04:31:48;2.60;;;2.40;;
23451;SDS011;11898;51.130;6.780;2022-07-15T04:34:17;4.05;;;2.45;;
23451;SDS011;11898;51.130;6.780;2022-07-15T04:36:46;2.30;;;2.20;;
23451;SDS011;11898;51.130;6.780;2022-07-15T04:39:14;2.83;;;2.55;;
23451;SDS011;11898;51.130;6.780;2022-07-15T04:41:43;3.95;;;2.37;;
23451;SDS011;11898;51.130;6.780;2022-07-15T04:44:11;3.08;;;2.25;;
23451;SDS011;11898;51.130;6.780;2022-07-15T04:46:40;2.92;;;2.40;;
23451;SDS011;11898;51.130;6.780;2022-07-15T04:49:09;2.33;;;2.12;;
23451;SDS011;11898;51.130;6.780;2022-07-15T04:51:48;2.42;;;2.20;;
23451;SDS011;11898;51.130;6.780;2022-07-15T04:54:17;2.33;;;2.10;;
23451;SDS011;11898;51.130;6.780;2022-07-15T04:56:45;2.55;;;1.85;;
23451;SDS011;11898;51.130;6.780;2022-07-15T04:59:14;4.15;;;2.22;;
23451;SDS011;11898;51.130;6.780;2022-07-15T05:01:42;2.42;;;2.22;;
23451;SDS011;11898;51.130;6.780;2022-07-15T05:04:11;2.20;;;2.05;;
23451;SDS011;11898;51.130;6.780;2022-07-15T05:06:40;4.22;;;2.40;;
23451;SDS011;11898;51.130;6.780;2022-07-15T05:09:08;2.45;;;2.08;;
23451;SDS011;11898;51.130;6.780;2022-07-15T05:11:37;2.80;;;2.37;;
23451;SDS011;11898;51.130;6.780;2022-07-15T05:14:06;3.62;;;2.65;;
23451;SDS011;11898;51.130;6.780;2022-07-15T05:16:34;2.27;;;2.10;;
23451;SDS011;11898;51.130;6.780;2022-07-15T05:19:03;3.20;;;2.33;;
23451;SDS011;11898;51.130;6.780;2022-07-15T05:21:32;4.08;;;2.90;;
23451;SDS011;11898;51.130;6.780;2022-07-15T05:24:00;3.30;;;2.92;;
23451;SDS011;11898;51.130;6.780;2022-07-15T05:26:30;2.70;;;2.50;;
23451;SDS011;11898;51.130;6.780;2022-07-15T05:29:01;5.30;;;2.60;;
23451;SDS011;11898;51.130;6.780;2022-07-15T05:31:29;4.00;;;3.05;;
23451;SDS011;11898;51.130;6.780;2022-07-15T05:33:58;3.45;;;2.77;;
23451;SDS011;11898;51.130;6.780;2022-07-15T05:36:27;2.62;;;2.37;;
23451;SDS011;11898;51.130;6.780;2022-07-15T05:38:56;5.05;;;2.17;;
23451;SDS011;11898;51.130;6.780;2022-07-15T05:41:24;4.37;;;2.27;;
23451;SDS011;11898;51.130;6.780;2022-07-15T05:43:53;2.95;;;2.40;;
23451;SDS011;11898;51.130;6.780;2022-07-15T05:46:21;2.60;;;2.40;;
23451;SDS011;11898;51.130;6.780;2022-07-15T05:48:50;4.10;;;2.50;;
23451;SDS011;11898;51.130;6.780;2022-07-15T05:51:19;2.50;;;2.30;;
23451;SDS011;11898;51.130;6.780;2022-07-15T05:53:47;3.85;;;2.60;;
23451;SDS011;11898;51.130;6.780;2022-07-15T05:56:16;2.60;;;2.40;;
23451;SDS011;11898;51.130;6.780;2022-07-15T05:58:45;2.45;;;2.25;;
23451;SDS011;11898;51.130;6.780;2022-07-15T06:01:13;2.37;;;2.02;;
23451;SDS011;11898;51.130;6.780;2022-07-15T06:03:42;2.35;;;1.90;;
23451;SDS011;11898;51.130;6.780;2022-07-15T06:06:11;3.83;;;2.60;;
23451;SDS011;11898;51.130;6.780;2022-07-15T06:08:40;4.47;;;2.37;;
23451;SDS011;11898;51.130;6.780;2022-07-15T06:11:10;3.67;;;2.50;;
23451;SDS011;11898;51.130;6.780;2022-07-15T06:13:39;5.45;;;2.50;;
23451;SDS011;11898;51.130;6.780;2022-07-15T06:16:08;4.30;;;2.50;;
23451;SDS011;11898;51.130;6.780;2022-07-15T06:18:38;3.85;;;2.55;;
23451;SDS011;11898;51.130;6.780;2022-07-15T06:21:06;3.42;;;2.50;;
23451;SDS011;11898;51.130;6.780;2022-07-15T06:23:35;2.80;;;2.52;;
23451;SDS011;11898;51.130;6.780;2022-07-15T06:26:03;5.53;;;2.70;;
23451;SDS011;11898;51.130;6.780;2022-07-15T06:28:32;3.40;;;2.62;;
23451;SDS011;11898;51.130;6.780;2022-07-15T06:31:01;2.58;;;2.05;;
23451;SDS011;11898;51.130;6.780;2022-07-15T06:33:29;3.47;;;1.95;;
23451;SDS011;11898;51.130;6.780;2022-07-15T06:35:58;4.67;;;1.98;;
23451;SDS011;11898;51.130;6.780;2022-07-15T06:38:27;2.72;;;2.40;;
23451;SDS011;11898;51.130;6.780;2022-07-15T06:40:57;3.35;;;2.40;;
23451;SDS011;11898;51.130;6.780;2022-07-15T06:43:26;2.47;;;2.27;;
23451;SDS011;11898;51.130;6.780;2022-07-15T06:45:54;2.02;;;1.92;;
23451;SDS011;11898;51.130;6.780;2022-07-15T06:48:23;2.77;;;1.95;;
23451;SDS011;11898;51.130;6.780;2022-07-15T06:50:52;3.62;;;2.10;;
23451;SDS011;11898;51.130;6.780;2022-07-15T06:53:20;2.40;;;2.20;;
23451;SDS011;11898;51.130;6.780;2022-07-15T06:55:49;3.00;;;2.12;;
23451;SDS011;11898;51.130;6.780;2022-07-15T06:58:18;1.85;;;1.75;;
23451;SDS011;11898;51.130;6.780;2022-07-15T07:00:46;2.33;;;1.98;;
23451;SDS011;11898;51.130;6.780;2022-07-15T07:03:15;3.35;;;1.90;;
23451;SDS011;11898;51.130;6.780;2022-07-15T07:05:45;3.02;;;1.90;;
23451;SDS011;11898;51.130;6.780;2022-07-15T07:08:14;12.60;;;5.37;;
23451;SDS011;11898;51.130;6.780;2022-07-15T07:10:42;10.25;;;5.17;;
23451;SDS011;11898;51.130;6.780;2022-07-15T07:13:11;2.83;;;1.90;;
23451;SDS011;11898;51.130;6.780;2022-07-15T07:15:40;1.72;;;1.62;;
23451;SDS011;11898;51.130;6.780;2022-07-15T07:18:10;1.70;;;1.60;;
23451;SDS011;11898;51.130;6.780;2022-07-15T07:20:39;3.02;;;1.70;;
23451;SDS011;11898;51.130;6.780;2022-07-15T07:23:09;2.67;;;1.80;;
23451;SDS011;11898;51.130;6.780;2022-07-15T07:25:38;2.40;;;2.10;;
23451;SDS011;11898;51.130;6.780;2022-07-15T07:28:08;3.22;;;2.10;;
23451;SDS011;11898;51.130;6.780;2022-07-15T07:30:37;1.70;;;1.60;;
23451;SDS011;11898;51.130;6.780;2022-07-15T07:33:06;3.27;;;2.00;;
23451;SDS011;11898;51.130;6.780;2022-07-15T07:35:34;1.80;;;1.70;;
23451;SDS011;11898;51.130;6.780;2022-07-15T07:38:03;1.80;;;1.70;;
23451;SDS011;11898;51.130;6.780;2022-07-15T07:40:32;1.70;;;1.60;;
23451;SDS011;11898;51.130;6.780;2022-07-15T07:43:01;2.92;;;2.08;;
23451;SDS011;11898;51.130;6.780;2022-07-15T07:45:29;2.83;;;1.85;;
23451;SDS011;11898;51.130;6.780;2022-07-15T07:47:58;2.25;;;1.60;;
23451;SDS011;11898;51.130;6.780;2022-07-15T07:50:27;2.10;;;1.60;;
23451;SDS011;11898;51.130;6.780;2022-07-15T07:52:55;1.87;;;1.77;;
23451;SDS011;11898;51.130;6.780;2022-07-15T07:55:24;1.80;;;1.60;;
23451;SDS011;11898;51.130;6.780;2022-07-15T07:57:54;3.25;;;2.00;;
23451;SDS011;11898;51.130;6.780;2022-07-15T08:00:25;2.17;;;1.37;;
23451;SDS011;11898;51.130;6.780;2022-07-15T08:02:55;3.02;;;1.45;;
23451;SDS011;11898;51.130;6.780;2022-07-15T08:05:25;1.70;;;1.60;;
23451;SDS011;11898;51.130;6.780;2022-07-15T08:10:43;2.87;;;1.57;;
23451;SDS011;11898;51.130;6.780;2022-07-15T08:13:14;1.90;;;1.50;;
23451;SDS011;11898;51.130;6.780;2022-07-15T08:15:44;1.95;;;1.52;;
23451;SDS011;11898;51.130;6.780;2022-07-15T08:18:13;2.37;;;2.00;;
23451;SDS011;11898;51.130;6.780;2022-07-15T08:20:42;1.70;;;1.60;;
23451;SDS011;11898;51.130;6.780;2022-07-15T08:23:11;1.80;;;1.37;;
23451;SDS011;11898;51.130;6.780;2022-07-15T08:25:41;1.72;;;1.20;;
23451;SDS011;11898;51.130;6.780;2022-07-15T08:28:09;1.75;;;1.20;;
23451;SDS011;11898;51.130;6.780;2022-07-15T08:30:38;1.20;;;1.20;;
23451;SDS011;11898;51.130;6.780;2022-07-15T08:33:07;1.30;;;1.20;;
23451;SDS011;11898;51.130;6.780;2022-07-15T08:35:35;1.45;;;1.20;;
23451;SDS011;11898;51.130;6.780;2022-07-15T08:38:04;1.55;;;1.45;;
23451;SDS011;11898;51.130;6.780;2022-07-15T08:40:34;1.22;;;1.22;;
23451;SDS011;11898;51.130;6.780;2022-07-15T08:43:08;1.85;;;1.65;;
23451;SDS011;11898;51.130;6.780;2022-07-15T08:45:40;1.62;;;1.22;;
23451;SDS011;11898;51.130;6.780;2022-07-15T08:48:10;2.62;;;1.52;;
23451;SDS011;11898;51.130;6.780;2022-07-15T08:50:40;1.75;;;1.57;;
23451;SDS011;11898;51.130;6.780;2022-07-15T08:53:10;2.08;;;1.70;;
23451;SDS011;11898;51.130;6.780;2022-07-15T08:55:39;2.40;;;2.00;;
23451;SDS011;11898;51.130;6.780;2022-07-15T08:58:08;1.95;;;1.30;;
23451;SDS011;11898;51.130;6.780;2022-07-15T09:00:37;1.52;;;1.40;;
23451;SDS011;11898;51.130;6.780;2022-07-15T09:03:05;2.98;;;1.65;;
23451;SDS011;11898;51.130;6.780;2022-07-15T09:05:36;1.25;;;1.20;;
23451;SDS011;11898;51.130;6.780;2022-07-15T09:08:06;1.20;;;1.10;;
23451;SDS011;11898;51.130;6.780;2022-07-15T09:10:47;1.20;;;1.10;;
23451;SDS011;11898;51.130;6.780;2022-07-15T09:16:08;1.70;;;1.05;;
23451;SDS011;11898;51.130;6.780;2022-07-15T09:18:41;1.32;;;1.12;;
23451;SDS011;11898;51.130;6.780;2022-07-15T09:21:15;1.10;;;1.00;;
23451;SDS011;11898;51.130;6.780;2022-07-15T09:23:46;1.47;;;1.12;;
23451;SDS011;11898;51.130;6.780;2022-07-15T09:26:24;1.65;;;1.10;;
23451;SDS011;11898;51.130;6.780;2022-07-15T09:28:53;1.30;;;1.00;;
23451;SDS011;11898;51.130;6.780;2022-07-15T09:31:32;1.77;;;1.30;;
23451;SDS011;11898;51.130;6.780;2022-07-15T09:34:21;1.30;;;1.20;;
23451;SDS011;11898;51.130;6.780;2022-07-15T09:36:52;1.10;;;1.10;;
23451;SDS011;11898;51.130;6.780;2022-07-15T09:39:23;1.50;;;1.10;;
23451;SDS011;11898;51.130;6.780;2022-07-15T09:41:53;0.90;;;0.90;;
23451;SDS011;11898;51.130;6.780;2022-07-15T09:44:25;1.10;;;1.03;;
23451;SDS011;11898;51.130;6.780;2022-07-15T09:46:58;1.10;;;1.00;;
23451;SDS011;11898;51.130;6.780;2022-07-15T09:52:05;1.15;;;0.90;;
23451;SDS011;11898;51.130;6.780;2022-07-15T09:54:39;1.50;;;1.12;;
23451;SDS011;11898;51.130;6.780;2022-07-15T09:57:10;1.80;;;1.10;;
23451;SDS011;11898;51.130;6.780;2022-07-15T09:59:42;1.00;;;1.00;;
23451;SDS011;11898;51.130;6.780;2022-07-15T10:02:11;1.12;;;1.00;;
23451;SDS011;11898;51.130;6.780;2022-07-15T10:04:41;1.10;;;1.00;;
23451;SDS011;11898;51.130;6.780;2022-07-15T10:07:12;2.47;;;1.07;;
23451;SDS011;11898;51.130;6.780;2022-07-15T10:09:42;1.07;;;1.07;;
23451;SDS011;11898;51.130;6.780;2022-07-15T10:12:15;1.05;;;0.90;;
23451;SDS011;11898;51.130;6.780;2022-07-15T10:18:01;1.00;;;1.00;;
23451;SDS011;11898;51.130;6.780;2022-07-15T10:20:39;1.40;;;1.20;;
23451;SDS011;11898;51.130;6.780;2022-07-15T10:28:47;1.40;;;1.07;;
23451;SDS011;11898;51.130;6.780;2022-07-15T10:31:23;1.70;;;1.00;;
23451;SDS011;11898;51.130;6.780;2022-07-15T10:39:19;1.22;;;1.10;;
23451;SDS011;11898;51.130;6.780;2022-07-15T10:41:53;1.10;;;1.00;;
23451;SDS011;11898;51.130;6.780;2022-07-15T10:44:24;1.80;;;1.10;;
23451;SDS011;11898;51.130;6.780;2022-07-15T10:49:51;1.00;;;1.00;;
23451;SDS011;11898;51.130;6.780;2022-07-15T10:52:16;0.88;;;0.88;;
23451;SDS011;11898;51.130;6.780;2022-07-15T10:54:50;0.80;;;0.80;;
23451;SDS011;11898;51.130;6.780;2022-07-15T10:58:00;1.45;;;1.02;;
23451;SDS011;11898;51.130;6.780;2022-07-15T11:00:04;0.90;;;0.90;;
23451;SDS011;11898;51.130;6.780;2022-07-15T11:02:33;3.50;;;1.00;;
23451;SDS011;11898;51.130;6.780;2022-07-15T11:05:17;2.98;;;1.00;;
23451;SDS011;11898;51.130;6.780;2022-07-15T11:07:48;1.02;;;0.93;;
23451;SDS011;11898;51.130;6.780;2022-07-15T11:10:17;1.05;;;1.00;;
23451;SDS011;11898;51.130;6.780;2022-07-15T11:15:21;1.10;;;1.00;;
23451;SDS011;11898;51.130;6.780;2022-07-15T11:17:53;1.65;;;1.00;;
23451;SDS011;11898;51.130;6.780;2022-07-15T11:20:27;0.90;;;0.90;;
23451;SDS011;11898;51.130;6.780;2022-07-15T11:23:06;1.20;;;1.10;;
23451;SDS011;11898;51.130;6.780;2022-07-15T11:25:37;1.27;;;1.00;;
23451;SDS011;11898;51.130;6.780;2022-07-15T11:28:08;1.17;;;1.10;;
23451;SDS011;11898;51.130;6.780;2022-07-15T11:30:45;1.35;;;1.20;;
23451;SDS011;11898;51.130;6.780;2022-07-15T11:33:17;0.80;;;0.80;;
23451;SDS011;11898;51.130;6.780;2022-07-15T11:35:48;1.05;;;0.95;;
23451;SDS011;11898;51.130;6.780;2022-07-15T11:38:22;1.00;;;0.90;;
23451;SDS011;11898;51.130;6.780;2022-07-15T11:40:55;0.82;;;0.82;;
23451;SDS011;11898;51.130;6.780;2022-07-15T11:43:45;0.80;;;0.80;;
23451;SDS011;11898;51.130;6.780;2022-07-15T11:46:32;1.75;;;1.00;;
23451;SDS011;11898;51.130;6.780;2022-07-15T11:49:02;0.90;;;0.90;;
23451;SDS011;11898;51.130;6.780;2022-07-15T11:51:33;1.02;;;1.00;;
23451;SDS011;11898;51.130;6.780;2022-07-15T11:54:02;0.80;;;0.80;;
23451;SDS011;11898;51.130;6.780;2022-07-15T13:02:18;0.90;;;0.90;;
23451;SDS011;11898;51.130;6.780;2022-07-15T13:07:15;1.35;;;0.80;;
23451;SDS011;11898;51.130;6.780;2022-07-15T13:09:44;0.85;;;0.82;;
23451;SDS011;11898;51.130;6.780;2022-07-15T13:19:39;0.80;;;0.80;;
23451;SDS011;11898;51.130;6.780;2022-07-15T13:22:08;0.93;;;0.82;;
23451;SDS011;11898;51.130;6.780;2022-07-15T13:24:36;1.17;;;0.80;;
23451;SDS011;11898;51.130;6.780;2022-07-15T13:44:20;1.57;;;1.20;;
23451;SDS011;11898;51.130;6.780;2022-07-15T13:46:48;1.45;;;1.00;;
23451;SDS011;11898;51.130;6.780;2022-07-15T13:49:17;1.22;;;1.12;;
23451;SDS011;11898;51.130;6.780;2022-07-15T13:51:47;0.90;;;0.90;;
23451;SDS011;11898;51.130;6.780;2022-07-15T13:54:16;1.20;;;0.90;;
23451;SDS011;11898;51.130;6.780;2022-07-15T13:56:45;0.85;;;0.80;;
23451;SDS011;11898;51.130;6.780;2022-07-15T13:59:13;2.05;;;0.90;;
23451;SDS011;11898;51.130;6.780;2022-07-15T14:01:42;0.53;;;0.53;;
23451;SDS011;11898;51.130;6.780;2022-07-15T14:04:11;1.57;;;0.68;;
23451;SDS011;11898;51.130;6.780;2022-07-15T14:06:39;1.10;;;1.00;;
23451;SDS011;11898;51.130;6.780;2022-07-15T14:09:08;0.80;;;0.80;;
23451;SDS011;11898;51.130;6.780;2022-07-15T14:11:37;0.85;;;0.85;;
23451;SDS011;11898;51.130;6.780;2022-07-15T14:14:06;0.85;;;0.78;;
23451;SDS011;11898;51.130;6.780;2022-07-15T14:16:34;0.70;;;0.70;;
23451;SDS011;11898;51.130;6.780;2022-07-15T14:19:03;0.70;;;0.70;;
23451;SDS011;11898;51.130;6.780;2022-07-15T14:21:32;1.42;;;0.90;;
23451;SDS011;11898;51.130;6.780;2022-07-15T14:24:03;1.10;;;1.00;;
23451;SDS011;11898;51.130;6.780;2022-07-15T14:26:32;0.78;;;0.78;;
23451;SDS011;11898;51.130;6.780;2022-07-15T14:29:00;0.80;;;0.80;;
23451;SDS011;11898;51.130;6.780;2022-07-15T14:31:30;0.70;;;0.70;;
23451;SDS011;11898;51.130;6.780;2022-07-15T14:33:58;0.70;;;0.70;;
23451;SDS011;11898;51.130;6.780;2022-07-15T14:36:27;1.32;;;0.90;;
23451;SDS011;11898;51.130;6.780;2022-07-15T18:19:16;0.93;;;0.90;;
23451;SDS011;11898;51.130;6.780;2022-07-15T18:21:44;0.90;;;0.90;;
23451;SDS011;11898;51.130;6.780;2022-07-15T18:24:13;0.80;;;0.80;;
23451;SDS011;11898;51.130;6.780;2022-07-15T18:26:42;0.90;;;0.90;;
23451;SDS011;11898;51.130;6.780;2022-07-15T18:29:10;0.90;;;0.90;;
23451;SDS011;11898;51.130;6.780;2022-07-15T18:31:39;0.93;;;0.93;;
23451;SDS011;11898;51.130;6.780;2022-07-15T18:34:08;0.90;;;0.90;;
23451;SDS011;11898;51.130;6.780;2022-07-15T18:36:36;1.67;;;1.00;;
23451;SDS011;11898;51.130;6.780;2022-07-15T18:39:05;0.80;;;0.80;;
23451;SDS011;11898;51.130;6.780;2022-07-15T18:41:34;0.82;;;0.82;;
23451;SDS011;11898;51.130;6.780;2022-07-15T18:44:03;0.90;;;0.90;;
23451;SDS011;11898;51.130;6.780;2022-07-15T18:46:31;0.82;;;0.80;;
23451;SDS011;11898;51.130;6.780;2022-07-15T18:49:00;0.80;;;0.80;;
23451;SDS011;11898;51.130;6.780;2022-07-15T18:51:28;1.00;;;0.88;;
23451;SDS011;11898;51.130;6.780;2022-07-15T18:53:57;1.40;;;0.93;;
23451;SDS011;11898;51.130;6.780;2022-07-15T18:56:26;0.90;;;0.90;;
23451;SDS011;11898;51.130;6.780;2022-07-15T18:58:55;1.42;;;1.07;;
23451;SDS011;11898;51.130;6.780;2022-07-15T19:01:25;1.25;;;1.15;;
23451;SDS011;11898;51.130;6.780;2022-07-15T19:03:54;1.37;;;1.00;;
23451;SDS011;11898;51.130;6.780;2022-07-15T19:06:22;1.17;;;1.07;;
23451;SDS011;11898;51.130;6.780;2022-07-15T19:08:51;0.90;;;0.90;;
23451;SDS011;11898;51.130;6.780;2022-07-15T19:11:20;1.00;;;1.00;;
23451;SDS011;11898;51.130;6.780;2022-07-15T19:13:51;1.00;;;1.00;;
23451;SDS011;11898;51.130;6.780;2022-07-15T19:16:20;1.15;;;1.10;;
23451;SDS011;11898;51.130;6.780;2022-07-15T19:18:49;0.95;;;0.95;;
23451;SDS011;11898;51.130;6.780;2022-07-15T19:21:18;1.00;;;1.00;;
23451;SDS011;11898;51.130;6.780;2022-07-15T19:23:46;1.00;;;1.00;;
23451;SDS011;11898;51.130;6.780;2022-07-15T19:26:15;1.42;;;1.30;;
23451;SDS011;11898;51.130;6.780;2022-07-15T19:28:44;1.00;;;1.00;;
23451;SDS011;11898;51.130;6.780;2022-07-15T19:31:13;1.00;;;1.00;;
23451;SDS011;11898;51.130;6.780;2022-07-15T19:33:42;2.55;;;1.35;;
23451;SDS011;11898;51.130;6.780;2022-07-15T19:36:10;0.90;;;0.90;;
23451;SDS011;11898;51.130;6.780;2022-07-15T19:38:39;1.20;;;1.10;;
23451;SDS011;11898;51.130;6.780;2022-07-15T19:41:08;1.10;;;1.10;;
23451;SDS011;11898;51.130;6.780;2022-07-15T19:43:36;1.00;;;1.00;;
23451;SDS011;11898;51.130;6.780;2022-07-15T19:46:05;1.40;;;1.30;;
23451;SDS011;11898;51.130;6.780;2022-07-15T19:48:34;1.02;;;1.02;;
23451;SDS011;11898;51.130;6.780;2022-07-15T19:51:02;1.50;;;1.40;;
23451;SDS011;11898;51.130;6.780;2022-07-15T19:53:31;1.10;;;1.10;;
23451;SDS011;11898;51.130;6.780;2022-07-15T19:56:00;1.32;;;0.93;;
23451;SDS011;11898;51.130;6.780;2022-07-15T19:58:28;1.05;;;1.05;;
23451;SDS011;11898;51.130;6.780;2022-07-15T20:00:57;1.40;;;1.30;;
23451;SDS011;11898;51.130;6.780;2022-07-15T20:03:26;1.20;;;1.10;;
23451;SDS011;11898;51.130;6.780;2022-07-15T20:05:54;1.40;;;1.30;;
23451;SDS011;11898;51.130;6.780;2022-07-15T20:08:23;1.57;;;1.40;;
23451;SDS011;11898;51.130;6.780;2022-07-15T20:10:52;1.85;;;1.25;;
23451;SDS011;11898;51.130;6.780;2022-07-15T20:13:21;2.15;;;1.20;;
23451;SDS011;11898;51.130;6.780;2022-07-15T20:15:50;1.47;;;1.37;;
23451;SDS011;11898;51.130;6.780;2022-07-15T20:18:18;1.30;;;1.20;;
23451;SDS011;11898;51.130;6.780;2022-07-15T20:20:49;1.40;;;1.30;;
23451;SDS011;11898;51.130;6.780;2022-07-15T20:23:18;1.40;;;1.30;;
23451;SDS011;11898;51.130;6.780;2022-07-15T20:25:46;1.40;;;1.30;;
23451;SDS011;11898;51.130;6.780;2022-07-15T20:28:15;1.50;;;1.40;;
23451;SDS011;11898;51.130;6.780;2022-07-15T20:30:44;1.40;;;1.30;;
23451;SDS011;11898;51.130;6.780;2022-07-15T20:33:12;2.00;;;1.90;;
23451;SDS011;11898;51.130;6.780;2022-07-15T20:35:41;1.65;;;1.32;;
23451;SDS011;11898;51.130;6.780;2022-07-15T20:38:11;1.20;;;1.20;;
23451;SDS011;11898;51.130;6.780;2022-07-15T20:40:40;1.27;;;1.27;;
23451;SDS011;11898;51.130;6.780;2022-07-15T20:43:09;1.20;;;1.20;;
23451;SDS011;11898;51.130;6.780;2022-07-15T20:45:38;1.42;;;1.32;;